createdAt,value
2019-03-12T00:00:13.427Z,6.20
2019-03-12T00:02:41.936Z,5.92
2019-03-12T00:05:12.761Z,7.62
2019-03-12T00:07:41.158Z,6.08
2019-03-12T00:10:12.331Z,5.92
2019-03-12T00:12:40.724Z,6.10
2019-03-12T00:15:13.708Z,6.55
2019-03-12T00:17:42.102Z,6.58
2019-03-12T00:20:11.661Z,5.83
2019-03-12T00:22:43.826Z,7.00
2019-03-12T00:25:12.232Z,5.90
2019-03-12T00:27:40.628Z,6.78
2019-03-12T00:30:10.569Z,7.33
2019-03-12T00:32:39.085Z,8.75
2019-03-12T00:35:09.396Z,9.18
2019-03-12T00:37:37.875Z,10.32
2019-03-12T00:40:08.412Z,10.20
2019-03-12T00:42:36.812Z,10.18
2019-03-12T00:45:08.393Z,10.50
2019-03-12T00:47:36.824Z,10.67
2019-03-12T00:50:09.719Z,12.47
2019-03-12T00:52:39.206Z,12.35
2019-03-12T00:55:11.285Z,13.40
2019-03-12T00:57:39.667Z,13.80
2019-03-12T01:00:16.542Z,15.53
2019-03-12T01:02:44.958Z,15.88
2019-03-12T01:05:13.639Z,15.60
2019-03-12T01:07:42.193Z,18.23
2019-03-12T01:10:14.763Z,17.42
2019-03-12T01:12:43.237Z,16.17
2019-03-12T01:15:13.495Z,17.73
2019-03-12T01:17:41.918Z,16.60
2019-03-12T01:20:14.717Z,18.37
2019-03-12T01:22:43.313Z,15.95
2019-03-12T01:25:13.235Z,18.42
2019-03-12T01:27:41.673Z,18.60
2019-03-12T01:30:17.835Z,19.35
2019-03-12T01:32:46.517Z,19.07
2019-03-12T01:35:15.104Z,20.62
2019-03-12T01:37:43.512Z,22.07
2019-03-12T01:40:14.045Z,23.18
2019-03-12T01:42:42.557Z,23.87
2019-03-12T01:45:13.629Z,25.37
2019-03-12T01:47:42.098Z,27.27
2019-03-12T01:50:18.259Z,27.62
2019-03-12T01:52:46.672Z,27.15
2019-03-12T01:55:16.425Z,28.77
2019-03-12T01:57:44.844Z,29.07
2019-03-12T02:00:20.563Z,28.70
2019-03-12T02:02:53.296Z,28.62
2019-03-12T02:05:21.692Z,29.50
2019-03-12T02:07:50.104Z,28.30
2019-03-12T02:10:18.557Z,30.13
2019-03-12T02:12:46.947Z,30.45
2019-03-12T02:15:17.353Z,30.23
2019-03-12T02:17:46.789Z,28.00
2019-03-12T02:20:19.379Z,29.95
2019-03-12T02:22:47.776Z,30.62
2019-03-12T02:25:20.102Z,29.37
2019-03-12T02:27:48.494Z,30.23
2019-03-12T02:30:21.085Z,29.57
2019-03-12T02:32:49.480Z,30.17
2019-03-12T02:35:20.435Z,26.62
2019-03-12T02:37:48.858Z,29.00
2019-03-12T02:40:17.727Z,30.48
2019-03-12T02:42:46.368Z,30.17
2019-03-12T02:45:16.019Z,30.95
2019-03-12T02:47:44.509Z,28.65
2019-03-12T02:50:16.821Z,28.57
2019-03-12T02:52:45.228Z,32.20
2019-03-12T02:55:14.667Z,33.57
2019-03-12T02:57:43.170Z,35.92
2019-03-12T03:00:19.072Z,36.50
2019-03-12T03:02:49.576Z,39.60
2019-03-12T03:05:18.156Z,34.95
2019-03-12T03:08:06.510Z,39.78
2019-03-12T03:10:35.021Z,36.20
2019-03-12T03:13:03.391Z,34.08
2019-03-12T03:15:46.548Z,37.73
2019-03-12T03:18:14.937Z,39.85
2019-03-12T03:20:43.390Z,38.98
2019-03-12T03:23:11.830Z,37.20
2019-03-12T03:25:40.248Z,37.35
2019-03-12T03:28:08.734Z,34.65
2019-03-12T03:30:37.141Z,31.73
2019-03-12T03:33:07.617Z,30.48
2019-03-12T03:35:35.746Z,31.68
2019-03-12T03:38:04.329Z,31.82
2019-03-12T03:40:32.706Z,32.27
2019-03-12T03:43:01.165Z,32.98
2019-03-12T03:45:31.005Z,34.53
2019-03-12T03:47:59.363Z,37.42
2019-03-12T03:50:27.769Z,36.35
2019-03-12T03:52:56.211Z,38.08
2019-03-12T03:55:24.672Z,36.10
2019-03-12T03:57:55.753Z,35.92
2019-03-12T04:00:30.940Z,35.23
2019-03-12T04:02:59.345Z,33.48
2019-03-12T04:05:28.800Z,33.02
2019-03-12T04:07:58.273Z,32.65
2019-03-12T04:10:26.645Z,29.33
2019-03-12T04:12:55.103Z,28.40
2019-03-12T04:15:26.140Z,28.42
2019-03-12T04:17:54.634Z,28.45
2019-03-12T04:20:24.767Z,29.40
2019-03-12T04:22:54.252Z,30.95
2019-03-12T04:25:22.663Z,26.87
2019-03-12T04:27:51.076Z,26.85
2019-03-12T04:30:20.236Z,27.73
2019-03-12T04:32:48.619Z,25.37
2019-03-12T04:35:25.886Z,23.70
2019-03-12T04:37:54.273Z,24.30
2019-03-12T04:40:22.743Z,22.77
2019-03-12T04:42:51.176Z,22.73
2019-03-12T04:45:19.627Z,23.20
2019-03-12T04:47:48.049Z,23.87
2019-03-12T04:50:19.189Z,23.85
2019-03-12T04:52:48.293Z,26.62
2019-03-12T04:55:17.324Z,27.23
2019-03-12T04:57:45.772Z,26.50
2019-03-12T05:00:21.633Z,26.65
2019-03-12T05:02:50.077Z,25.10
2019-03-12T05:05:18.481Z,28.20
2019-03-12T05:07:46.917Z,26.80
2019-03-12T05:10:17.628Z,29.67
2019-03-12T05:12:45.956Z,29.63
2019-03-12T05:15:20.801Z,33.70
2019-03-12T05:17:49.201Z,34.15
2019-03-12T05:20:17.651Z,32.40
2019-03-12T05:22:46.073Z,35.15
2019-03-12T05:25:15.341Z,34.00
2019-03-12T05:27:44.247Z,34.55
2019-03-12T05:30:17.576Z,36.28
2019-03-12T05:32:46.174Z,34.50
2019-03-12T05:35:18.688Z,35.75
2019-03-12T05:37:50.802Z,34.83
2019-03-12T05:42:46.867Z,37.80
2019-03-12T05:45:18.298Z,35.13
2019-03-12T05:47:46.739Z,37.98
2019-03-12T05:50:16.487Z,37.85
2019-03-12T05:52:44.916Z,35.30
2019-03-12T05:55:15.845Z,35.63
2019-03-12T05:57:44.254Z,33.08
2019-03-12T06:00:21.714Z,33.28
2019-03-12T06:02:50.303Z,30.52
2019-03-12T06:05:19.792Z,30.15
2019-03-12T06:07:49.283Z,30.72
2019-03-12T06:10:17.815Z,30.00
2019-03-12T06:12:51.494Z,27.93
2019-03-12T06:15:19.988Z,27.98
2019-03-12T06:17:48.410Z,29.37
2019-03-12T06:20:18.786Z,26.35
2019-03-12T06:22:47.176Z,24.37
2019-03-12T06:25:15.801Z,24.45
2019-03-12T06:27:44.231Z,23.42
2019-03-12T06:30:19.692Z,22.25
2019-03-12T06:33:01.466Z,20.88
2019-03-12T06:35:31.519Z,21.53
2019-03-12T06:38:19.275Z,20.02
2019-03-12T06:41:05.164Z,17.23
2019-03-12T06:43:52.690Z,15.95
2019-03-12T06:46:28.696Z,17.23
2019-03-12T06:49:01.215Z,16.60
2019-03-12T06:51:45.077Z,16.75
2019-03-12T06:54:14.861Z,17.37
2019-03-12T06:56:44.890Z,19.75
2019-03-12T06:59:23.709Z,21.10
2019-03-12T07:01:59.472Z,21.07
2019-03-12T07:04:35.233Z,20.68
2019-03-12T07:07:20.315Z,23.55
2019-03-12T07:09:51.434Z,23.07
2019-03-12T07:12:24.439Z,22.65
2019-03-12T07:15:12.673Z,24.05
2019-03-12T07:17:45.581Z,21.68
2019-03-12T07:20:14.648Z,22.80
2019-03-12T07:22:44.697Z,24.07
2019-03-12T07:25:17.855Z,24.75
2019-03-12T07:27:53.948Z,25.43
2019-03-12T07:30:30.224Z,24.65
2019-03-12T07:33:02.716Z,24.87
2019-03-12T07:38:23.272Z,22.85
2019-03-12T07:40:59.109Z,23.47
2019-03-12T07:43:45.155Z,23.67
2019-03-12T07:46:19.395Z,24.80
2019-03-12T07:48:52.498Z,27.60
2019-03-12T07:51:25.207Z,22.85
2019-03-12T07:54:13.865Z,22.67
2019-03-12T07:56:55.106Z,21.35
2019-03-12T07:59:28.136Z,23.02
2019-03-12T08:02:01.264Z,19.15
2019-03-12T08:04:44.605Z,18.25
2019-03-12T08:07:17.604Z,16.75
2019-03-12T08:10:05.803Z,15.40
2019-03-12T08:12:38.703Z,12.45
2019-03-12T08:15:22.638Z,13.10
2019-03-12T08:17:43.436Z,11.48
2019-03-12T08:20:13.463Z,12.35
2019-03-12T08:22:46.197Z,10.43
2019-03-12T08:25:16.247Z,10.95
2019-03-12T08:27:59.493Z,9.83
2019-03-12T08:30:32.538Z,8.53
2019-03-12T08:33:04.551Z,8.85
2019-03-12T08:35:46.649Z,8.53
2019-03-12T08:38:31.411Z,7.00
2019-03-12T08:41:01.282Z,7.08
2019-03-12T08:43:50.537Z,7.95
2019-03-12T08:46:22.339Z,6.35
2019-03-12T08:48:55.272Z,7.22
2019-03-12T08:51:31.511Z,7.15
2019-03-12T08:54:13.864Z,6.33
2019-03-12T08:56:59.203Z,7.62
2019-03-12T08:59:31.334Z,6.75
2019-03-12T09:02:02.526Z,6.60
2019-03-12T09:04:32.956Z,6.05
2019-03-12T09:07:05.166Z,6.42
2019-03-12T09:09:37.495Z,6.75
2019-03-12T09:12:15.639Z,5.92
2019-03-12T09:15:01.865Z,6.25
2019-03-12T09:17:34.549Z,5.40
2019-03-12T09:20:07.578Z,6.22
2019-03-12T09:22:42.249Z,5.15
2019-03-12T09:25:31.655Z,5.62
2019-03-12T09:28:20.963Z,4.70
2019-03-12T09:30:51.160Z,5.22
2019-03-12T09:33:21.198Z,5.37
2019-03-12T09:35:56.521Z,4.90
2019-03-12T09:38:31.590Z,4.87
2019-03-12T09:41:04.558Z,5.40
2019-03-12T09:43:37.569Z,5.65
2019-03-12T09:46:10.911Z,5.40
2019-03-12T09:48:50.310Z,4.50
2019-03-12T09:51:37.177Z,5.33
2019-03-12T09:54:15.404Z,5.05
2019-03-12T09:56:45.486Z,5.75
2019-03-12T09:59:33.468Z,5.25
2019-03-12T10:02:20.801Z,5.25
2019-03-12T10:05:08.535Z,5.65
2019-03-12T10:07:53.447Z,5.92
2019-03-12T10:10:29.431Z,5.62
2019-03-12T10:13:15.569Z,4.95
2019-03-12T10:15:58.030Z,4.92
2019-03-12T10:18:33.003Z,4.72
2019-03-12T10:21:03.045Z,6.15
2019-03-12T10:23:41.655Z,5.33
2019-03-12T10:26:11.928Z,5.10
2019-03-12T10:28:41.980Z,6.83
2019-03-12T10:31:14.751Z,5.62
2019-03-12T10:33:45.551Z,6.95
2019-03-12T10:36:21.200Z,5.97
2019-03-12T10:39:30.885Z,5.47
2019-03-12T10:42:07.051Z,4.80
2019-03-12T10:44:51.175Z,5.50
2019-03-12T10:47:24.212Z,5.90
2019-03-12T10:49:52.599Z,6.15
2019-03-12T10:52:21.631Z,6.97
2019-03-12T10:54:50.043Z,6.42
2019-03-12T10:57:21.665Z,7.12
2019-03-12T10:59:50.487Z,8.25
2019-03-12T11:02:22.883Z,8.80
2019-03-12T11:04:51.368Z,8.35
2019-03-12T11:07:22.548Z,8.50
2019-03-12T11:09:50.928Z,7.93
2019-03-12T11:12:19.380Z,9.03
2019-03-12T11:14:59.858Z,7.92
2019-03-12T11:17:29.362Z,8.68
2019-03-12T11:19:57.835Z,9.23
2019-03-12T11:22:26.538Z,9.43
2019-03-12T11:24:54.985Z,8.50
2019-03-12T11:27:23.599Z,8.68
2019-03-12T11:29:52.908Z,8.43
2019-03-12T11:32:21.790Z,7.78
2019-03-12T11:34:50.272Z,10.15
2019-03-12T11:37:18.653Z,9.40
2019-03-12T11:39:47.148Z,10.18
2019-03-12T11:42:15.541Z,9.75
2019-03-12T11:44:43.909Z,9.75
2019-03-12T11:47:12.842Z,10.25
2019-03-12T11:49:41.411Z,9.53
2019-03-12T11:52:10.061Z,10.48
2019-03-12T11:54:41.950Z,10.32
2019-03-12T11:57:10.472Z,10.82
2019-03-12T11:59:43.425Z,11.53
2019-03-12T12:02:13.000Z,10.60
2019-03-12T12:04:41.408Z,10.23
2019-03-12T12:07:10.140Z,10.53
2019-03-12T12:09:38.561Z,11.55
2019-03-12T12:12:07.375Z,10.95
2019-03-12T12:14:35.788Z,11.33
2019-03-12T12:17:07.005Z,11.53
2019-03-12T12:19:35.423Z,10.28
2019-03-12T12:22:03.833Z,11.00
2019-03-12T12:24:32.209Z,11.00
2019-03-12T12:27:00.651Z,10.32
2019-03-12T12:29:29.071Z,9.55
2019-03-12T12:32:01.914Z,10.30
2019-03-12T12:34:30.306Z,10.00
2019-03-12T12:36:58.711Z,10.03
2019-03-12T12:39:28.094Z,9.63
2019-03-12T12:41:56.511Z,10.03
2019-03-12T12:44:26.949Z,9.25
2019-03-12T12:46:55.339Z,9.55
2019-03-12T12:49:24.038Z,8.48
2019-03-12T12:51:52.594Z,8.75
2019-03-12T12:54:21.519Z,8.45
2019-03-12T12:56:49.903Z,9.13
2019-03-12T12:59:18.321Z,8.23
2019-03-12T13:01:47.691Z,7.15
2019-03-12T13:04:16.103Z,6.65
2019-03-12T13:06:44.497Z,5.92
2019-03-12T13:09:13.500Z,6.67
2019-03-12T13:11:44.335Z,5.65
2019-03-12T13:14:15.590Z,6.15
2019-03-12T13:16:43.998Z,5.58
2019-03-12T13:19:12.433Z,5.65
2019-03-12T13:21:41.847Z,5.30
2019-03-12T13:24:10.337Z,6.10
2019-03-12T13:26:39.643Z,5.33
2019-03-12T13:29:08.091Z,5.22
2019-03-12T13:31:36.614Z,5.12
2019-03-12T13:34:05.059Z,5.22
2019-03-12T13:36:37.806Z,5.60
2019-03-12T13:39:07.452Z,3.10
2019-03-12T13:41:36.632Z,3.33
2019-03-12T13:44:05.220Z,3.08
2019-03-12T13:46:34.582Z,3.77
2019-03-12T13:49:03.033Z,4.30
2019-03-12T13:51:31.444Z,3.90
2019-03-12T13:53:59.897Z,3.10
2019-03-12T13:56:28.341Z,3.62
2019-03-12T13:58:56.707Z,4.05
2019-03-12T14:01:28.923Z,3.98
2019-03-12T14:04:10.119Z,3.33
2019-03-12T14:06:30.657Z,3.33
2019-03-12T14:08:59.042Z,4.53
2019-03-12T14:11:27.542Z,4.03
2019-03-12T14:13:55.943Z,3.42
2019-03-12T14:16:24.353Z,4.08
2019-03-12T14:18:53.421Z,3.30
2019-03-12T14:21:22.937Z,3.10
2019-03-12T14:24:00.114Z,3.35
2019-03-12T14:26:28.719Z,3.25
2019-03-12T14:29:04.282Z,4.05
2019-03-12T14:31:32.755Z,3.45
2019-03-12T14:34:01.180Z,2.83
2019-03-12T14:36:29.680Z,3.40
2019-03-12T14:38:58.076Z,3.62
2019-03-12T14:41:26.554Z,3.67
2019-03-12T14:43:55.114Z,3.47
2019-03-12T14:46:25.968Z,3.20
2019-03-12T14:48:55.575Z,4.10
2019-03-12T14:51:32.438Z,4.05
2019-03-12T14:54:12.799Z,3.00
2019-03-12T14:56:42.016Z,4.17
2019-03-12T14:59:11.544Z,3.45
2019-03-12T15:01:40.203Z,3.75
2019-03-12T15:04:09.586Z,3.72
2019-03-12T15:06:38.316Z,3.15
2019-03-12T15:09:12.571Z,3.42
2019-03-12T15:11:41.119Z,3.95
2019-03-12T15:14:12.144Z,5.42
2019-03-12T15:16:40.551Z,4.12
2019-03-12T15:19:08.955Z,3.10
2019-03-12T15:21:37.798Z,3.02
2019-03-12T15:24:06.307Z,3.15
2019-03-12T15:26:34.738Z,3.05
2019-03-12T15:29:03.707Z,3.70
2019-03-12T15:31:32.265Z,3.65
2019-03-12T15:34:00.687Z,3.10
2019-03-12T15:36:30.168Z,3.05
2019-03-12T15:39:00.422Z,3.05
2019-03-12T15:41:31.248Z,2.83
2019-03-12T15:44:00.904Z,2.40
2019-03-12T15:46:29.273Z,2.90
2019-03-12T15:48:57.666Z,2.55
2019-03-12T15:51:26.093Z,2.65
2019-03-12T15:53:54.981Z,2.42
2019-03-12T15:56:23.373Z,2.75
2019-03-12T15:58:52.748Z,2.83
2019-03-12T16:01:22.067Z,2.55
2019-03-12T16:03:51.357Z,2.70
2019-03-12T16:06:19.906Z,2.52
2019-03-12T16:08:48.310Z,2.77
2019-03-12T16:11:16.709Z,2.77
2019-03-12T16:13:45.109Z,3.50
2019-03-12T16:16:14.425Z,2.50
2019-03-12T16:18:43.023Z,2.50
2019-03-12T16:21:11.611Z,2.70
2019-03-12T16:23:40.379Z,2.22
2019-03-12T16:26:08.805Z,2.83
2019-03-12T16:28:37.233Z,2.90
2019-03-12T16:31:05.671Z,3.27
2019-03-12T16:33:34.080Z,2.70
2019-03-12T16:36:02.505Z,2.65
2019-03-12T16:38:30.876Z,2.92
2019-03-12T16:40:59.276Z,2.77
2019-03-12T16:43:27.696Z,3.10
2019-03-12T16:45:57.156Z,2.42
2019-03-12T16:48:26.065Z,3.22
2019-03-12T16:50:54.453Z,4.15
2019-03-12T16:53:22.846Z,2.70
2019-03-12T16:55:53.718Z,2.55
2019-03-12T16:58:22.091Z,2.42
2019-03-12T17:00:50.569Z,2.37
2019-03-12T17:03:19.334Z,3.17
2019-03-12T17:05:47.722Z,2.52
2019-03-12T17:08:16.960Z,2.35
2019-03-12T17:10:56.029Z,2.92
2019-03-12T17:13:19.089Z,2.52
2019-03-12T17:15:51.034Z,2.80
2019-03-12T17:18:18.602Z,3.02
2019-03-12T17:20:47.040Z,2.50
2019-03-12T17:23:16.661Z,2.90
2019-03-12T17:25:44.990Z,2.67
2019-03-12T17:28:14.095Z,3.10
2019-03-12T17:30:43.777Z,3.55
2019-03-12T17:33:12.197Z,2.65
2019-03-12T17:35:42.360Z,2.55
2019-03-12T17:38:10.845Z,3.72
2019-03-12T17:40:40.247Z,2.83
2019-03-12T17:43:08.622Z,2.98
2019-03-12T17:45:37.439Z,3.25
2019-03-12T17:48:05.988Z,4.75
2019-03-12T17:50:35.684Z,3.72
2019-03-12T17:55:55.109Z,2.55
2019-03-12T17:58:23.582Z,2.75
2019-03-12T18:00:52.013Z,2.47
2019-03-12T18:03:27.517Z,2.67
2019-03-12T18:09:17.800Z,2.72
2019-03-12T18:11:54.160Z,2.90
2019-03-12T18:14:30.632Z,2.10
2019-03-12T18:17:02.797Z,2.77
2019-03-12T18:19:33.751Z,2.42
2019-03-12T18:22:06.500Z,2.85
2019-03-12T18:24:46.911Z,2.10
2019-03-12T18:27:19.057Z,3.05
2019-03-12T18:29:47.636Z,3.08
2019-03-12T18:32:16.153Z,2.70
2019-03-12T18:34:44.613Z,3.62
2019-03-12T18:37:13.080Z,2.45
2019-03-12T18:39:41.617Z,2.55
2019-03-12T18:42:10.186Z,2.50
2019-03-12T18:44:43.809Z,2.70
2019-03-12T18:47:12.249Z,2.60
2019-03-12T18:49:40.819Z,2.80
2019-03-12T18:52:09.253Z,2.27
2019-03-12T18:54:37.730Z,2.92
2019-03-12T18:57:06.193Z,2.80
2019-03-12T18:59:34.667Z,2.95
2019-03-12T19:02:06.730Z,2.83
2019-03-12T19:04:35.107Z,2.10
2019-03-12T19:07:04.637Z,2.55
2019-03-12T19:09:36.778Z,2.60
2019-03-12T19:12:05.230Z,2.00
2019-03-12T19:14:33.668Z,2.37
2019-03-12T19:17:03.799Z,2.40
2019-03-12T19:19:32.187Z,2.52
2019-03-12T19:22:00.645Z,2.80
2019-03-12T19:24:29.245Z,2.62
2019-03-12T19:26:57.818Z,2.50
2019-03-12T19:29:26.272Z,2.60
2019-03-12T19:31:58.867Z,2.30
2019-03-12T19:34:28.938Z,2.35
2019-03-12T19:36:57.335Z,2.35
2019-03-12T19:39:25.744Z,2.67
2019-03-12T19:41:54.540Z,2.52
2019-03-12T19:44:22.977Z,2.27
2019-03-12T19:46:51.377Z,2.02
2019-03-12T19:49:23.577Z,2.55
2019-03-12T19:51:51.996Z,2.45
2019-03-12T19:54:20.400Z,2.50
2019-03-12T19:56:48.797Z,2.70
2019-03-12T19:59:17.193Z,2.45
2019-03-12T20:01:45.774Z,2.12
2019-03-12T20:04:15.301Z,2.50
2019-03-12T20:06:43.800Z,2.37
2019-03-12T20:09:15.452Z,2.10
2019-03-12T20:11:52.373Z,2.13
2019-03-12T20:14:44.849Z,2.10
2019-03-12T20:17:34.267Z,2.25
2019-03-12T20:20:23.748Z,1.67
2019-03-12T20:23:27.974Z,2.67
2019-03-12T20:26:34.526Z,2.12
2019-03-12T20:29:14.930Z,2.37
2019-03-12T20:32:19.971Z,2.15
2019-03-12T20:35:09.531Z,2.00
2019-03-12T20:38:09.905Z,2.37
2019-03-12T20:40:50.166Z,2.45
2019-03-12T20:43:56.815Z,1.60
2019-03-12T20:47:01.712Z,1.82
2019-03-12T20:49:39.130Z,1.98
2019-03-12T20:52:27.108Z,2.17
2019-03-12T20:55:19.487Z,2.25
2019-03-12T20:58:05.757Z,2.30
2019-03-12T21:00:59.878Z,2.60
2019-03-12T21:03:36.914Z,3.42
2019-03-12T21:06:36.902Z,2.42
2019-03-12T21:09:27.401Z,3.15
2019-03-12T21:12:28.578Z,2.42
2019-03-12T21:15:03.663Z,2.10
2019-03-12T21:17:57.818Z,2.10
2019-03-12T21:21:05.990Z,2.08
2019-03-12T21:23:48.775Z,1.85
2019-03-12T21:26:33.446Z,2.17
2019-03-12T21:29:30.231Z,2.27
2019-03-12T21:31:58.641Z,2.35
2019-03-12T21:34:27.030Z,2.08
2019-03-12T21:36:59.190Z,2.60
2019-03-12T21:39:27.784Z,2.45
2019-03-12T21:41:57.194Z,2.25
2019-03-12T21:44:26.765Z,2.45
2019-03-12T21:46:58.834Z,2.40
2019-03-12T21:49:27.209Z,2.22
2019-03-12T21:51:56.743Z,2.77
2019-03-12T21:54:25.149Z,2.10
2019-03-12T21:56:53.531Z,2.10
2019-03-12T21:59:21.900Z,2.58
2019-03-12T22:01:50.308Z,2.15
2019-03-12T22:04:18.661Z,2.50
2019-03-12T22:06:47.066Z,2.45
2019-03-12T22:09:15.627Z,2.27
2019-03-12T22:11:44.010Z,1.87
2019-03-12T22:14:12.373Z,1.95
2019-03-12T22:16:45.447Z,2.05
2019-03-12T22:19:13.098Z,2.22
2019-03-12T22:21:44.209Z,2.10
2019-03-12T22:24:14.283Z,2.33
2019-03-12T22:26:43.685Z,1.75
2019-03-12T22:29:13.133Z,1.55
2019-03-12T22:31:41.509Z,2.37
2019-03-12T22:34:09.879Z,2.22
2019-03-12T22:36:38.372Z,1.92
2019-03-12T22:39:06.989Z,1.82
2019-03-12T22:41:35.392Z,1.70
2019-03-12T22:44:03.796Z,1.42
2019-03-12T22:46:32.173Z,2.20
2019-03-12T22:49:00.575Z,1.50
2019-03-12T22:51:28.975Z,2.83
2019-03-12T22:53:57.351Z,1.85
2019-03-12T22:56:29.541Z,2.15
2019-03-12T22:58:58.008Z,1.87
2019-03-12T23:01:26.402Z,2.75
2019-03-12T23:03:55.810Z,1.65
2019-03-12T23:06:24.222Z,2.08
2019-03-12T23:08:52.625Z,1.77
2019-03-12T23:11:21.029Z,1.65
2019-03-12T23:13:50.429Z,1.75
2019-03-12T23:16:19.809Z,1.90
2019-03-12T23:18:48.201Z,2.10
2019-03-12T23:21:16.592Z,1.67
2019-03-12T23:23:45.020Z,1.70
2019-03-12T23:26:17.084Z,1.90
2019-03-12T23:28:45.607Z,2.15
2019-03-12T23:31:15.348Z,2.08
2019-03-12T23:33:43.640Z,3.45
2019-03-12T23:36:13.426Z,2.10
2019-03-12T23:38:41.987Z,2.42
2019-03-12T23:41:12.851Z,2.00
2019-03-12T23:43:41.318Z,2.62
2019-03-12T23:46:11.920Z,2.35
2019-03-12T23:48:43.409Z,2.05
2019-03-12T23:51:11.790Z,2.20
2019-03-12T23:53:42.936Z,2.22
2019-03-12T23:56:11.528Z,2.40
2019-03-12T23:58:39.896Z,2.10
